sensor_id;sensor_type;location;lat;lon;timestamp;pressure;altitude;pressure_sealevel;temperature;humidity
6198;BME280;3132;42.622;23.328;2023-04-08T00:00:04;92804.66;;;4.35;84.66
6198;BME280;3132;42.622;23.328;2023-04-08T00:02:30;92824.72;;;4.28;85.69
6198;BME280;3132;42.622;23.328;2023-04-08T00:04:56;92743.50;;;3.91;84.86
6198;BME280;3132;42.622;23.328;2023-04-08T00:07:21;92804.97;;;4.38;84.76
6198;BME280;3132;42.622;23.328;2023-04-08T00:09:46;92848.91;;;4.71;82.85
6198;BME280;3132;42.622;23.328;2023-04-08T00:12:12;92817.75;;;4.45;83.52
6198;BME280;3132;42.622;23.328;2023-04-08T00:14:37;92810.13;;;4.22;84.10
6198;BME280;3132;42.622;23.328;2023-04-08T00:17:03;92846.94;;;4.62;84.33
6198;BME280;3132;42.622;23.328;2023-04-08T00:19:28;92831.84;;;4.54;84.29
6198;BME280;3132;42.622;23.328;2023-04-08T00:21:53;92824.16;;;4.42;85.42
6198;BME280;3132;42.622;23.328;2023-04-08T00:24:19;92824.63;;;4.39;85.42
6198;BME280;3132;42.622;23.328;2023-04-08T00:26:44;92828.78;;;4.40;85.80
6198;BME280;3132;42.622;23.328;2023-04-08T00:29:10;92837.06;;;4.42;85.59
6198;BME280;3132;42.622;23.328;2023-04-08T00:31:35;92832.69;;;4.26;86.30
6198;BME280;3132;42.622;23.328;2023-04-08T00:34:01;92820.25;;;4.23;85.65
6198;BME280;3132;42.622;23.328;2023-04-08T00:36:26;92815.00;;;4.18;86.22
6198;BME280;3132;42.622;23.328;2023-04-08T00:38:52;92816.50;;;4.31;86.91
6198;BME280;3132;42.622;23.328;2023-04-08T00:41:18;92845.00;;;4.52;85.87
6198;BME280;3132;42.622;23.328;2023-04-08T00:43:43;92832.75;;;4.31;86.61
6198;BME280;3132;42.622;23.328;2023-04-08T00:46:08;92850.06;;;4.47;87.43
6198;BME280;3132;42.622;23.328;2023-04-08T00:48:34;92854.69;;;4.45;87.68
6198;BME280;3132;42.622;23.328;2023-04-08T00:51:00;92850.56;;;4.44;87.17
6198;BME280;3132;42.622;23.328;2023-04-08T00:53:26;92857.91;;;4.52;86.69
6198;BME280;3132;42.622;23.328;2023-04-08T00:55:51;92834.41;;;4.37;86.80
6198;BME280;3132;42.622;23.328;2023-04-08T00:58:17;92838.72;;;4.32;87.40
6198;BME280;3132;42.622;23.328;2023-04-08T01:00:54;92825.88;;;4.20;87.59
6198;BME280;3132;42.622;23.328;2023-04-08T01:03:34;92850.00;;;4.42;87.23
6198;BME280;3132;42.622;23.328;2023-04-08T01:06:14;92855.16;;;4.42;86.85
6198;BME280;3132;42.622;23.328;2023-04-08T01:08:40;92852.28;;;4.39;87.47
6198;BME280;3132;42.622;23.328;2023-04-08T01:11:10;92853.84;;;4.40;88.14
6198;BME280;3132;42.622;23.328;2023-04-08T01:13:39;92854.06;;;4.38;87.64
6198;BME280;3132;42.622;23.328;2023-04-08T01:16:07;92834.81;;;4.29;86.84
6198;BME280;3132;42.622;23.328;2023-04-08T01:18:34;92849.94;;;4.54;86.71
6198;BME280;3132;42.622;23.328;2023-04-08T01:21:01;92821.28;;;4.39;85.82
6198;BME280;3132;42.622;23.328;2023-04-08T01:23:32;92856.47;;;4.78;84.58
6198;BME280;3132;42.622;23.328;2023-04-08T01:26:02;92850.38;;;4.67;85.17
6198;BME280;3132;42.622;23.328;2023-04-08T01:28:29;92837.78;;;4.54;84.80
6198;BME280;3132;42.622;23.328;2023-04-08T01:30:57;92844.03;;;4.58;84.92
6198;BME280;3132;42.622;23.328;2023-04-08T01:33:24;92835.44;;;4.36;84.79
6198;BME280;3132;42.622;23.328;2023-04-08T01:35:50;92850.06;;;4.47;85.08
6198;BME280;3132;42.622;23.328;2023-04-08T01:38:19;92861.34;;;4.58;84.68
6198;BME280;3132;42.622;23.328;2023-04-08T01:40:46;92854.31;;;4.53;85.31
6198;BME280;3132;42.622;23.328;2023-04-08T01:43:16;92847.09;;;4.55;85.04
6198;BME280;3132;42.622;23.328;2023-04-08T01:45:46;92846.88;;;4.57;84.31
6198;BME280;3132;42.622;23.328;2023-04-08T01:48:13;92852.41;;;4.65;84.43
6198;BME280;3132;42.622;23.328;2023-04-08T01:50:43;92848.41;;;4.58;84.47
6198;BME280;3132;42.622;23.328;2023-04-08T01:53:09;92841.94;;;4.55;84.17
6198;BME280;3132;42.622;23.328;2023-04-08T01:55:36;92795.28;;;4.12;85.29
6198;BME280;3132;42.622;23.328;2023-04-08T01:58:04;92830.66;;;4.45;84.46
6198;BME280;3132;42.622;23.328;2023-04-08T02:00:32;92851.25;;;4.40;86.45
6198;BME280;3132;42.622;23.328;2023-04-08T02:03:00;92815.78;;;4.35;85.19
6198;BME280;3132;42.622;23.328;2023-04-08T02:05:26;92825.66;;;4.38;84.81
6198;BME280;3132;42.622;23.328;2023-04-08T02:07:52;92823.03;;;4.22;84.75
6198;BME280;3132;42.622;23.328;2023-04-08T02:10:17;92838.97;;;4.30;84.74
6198;BME280;3132;42.622;23.328;2023-04-08T02:12:43;92858.38;;;4.49;85.27
6198;BME280;3132;42.622;23.328;2023-04-08T02:15:11;92868.72;;;4.49;84.95
6198;BME280;3132;42.622;23.328;2023-04-08T02:17:48;92869.25;;;4.51;84.32
6198;BME280;3132;42.622;23.328;2023-04-08T02:20:16;92872.06;;;4.50;84.15
6198;BME280;3132;42.622;23.328;2023-04-08T02:25:28;92844.13;;;4.30;82.69
6198;BME280;3132;42.622;23.328;2023-04-08T02:27:55;92874.91;;;4.32;82.38
6198;BME280;3132;42.622;23.328;2023-04-08T02:30:23;92845.63;;;4.26;82.48
6198;BME280;3132;42.622;23.328;2023-04-08T02:32:50;92868.41;;;4.62;82.37
6198;BME280;3132;42.622;23.328;2023-04-08T02:35:17;92854.69;;;4.45;82.97
6198;BME280;3132;42.622;23.328;2023-04-08T02:37:45;92870.84;;;4.52;83.04
6198;BME280;3132;42.622;23.328;2023-04-08T02:40:41;92861.34;;;4.41;84.32
6198;BME280;3132;42.622;23.328;2023-04-08T02:43:06;92846.63;;;4.25;84.98
6198;BME280;3132;42.622;23.328;2023-04-08T02:45:42;92860.88;;;4.44;83.74
6198;BME280;3132;42.622;23.328;2023-04-08T02:48:08;92880.72;;;4.39;83.79
6198;BME280;3132;42.622;23.328;2023-04-08T02:50:34;92870.44;;;4.44;84.50
6198;BME280;3132;42.622;23.328;2023-04-08T02:53:00;92880.16;;;4.53;84.31
6198;BME280;3132;42.622;23.328;2023-04-08T02:55:26;92844.69;;;4.32;85.01
6198;BME280;3132;42.622;23.328;2023-04-08T02:57:51;92866.22;;;4.54;85.67
6198;BME280;3132;42.622;23.328;2023-04-08T03:00:17;92869.81;;;4.53;85.46
6198;BME280;3132;42.622;23.328;2023-04-08T03:02:42;92847.56;;;4.36;84.83
6198;BME280;3132;42.622;23.328;2023-04-08T03:05:08;92882.66;;;4.48;85.66
6198;BME280;3132;42.622;23.328;2023-04-08T03:07:34;92872.25;;;4.43;85.32
6198;BME280;3132;42.622;23.328;2023-04-08T03:09:59;92881.09;;;4.47;85.49
6198;BME280;3132;42.622;23.328;2023-04-08T03:12:25;92878.34;;;4.54;86.07
6198;BME280;3132;42.622;23.328;2023-04-08T03:14:53;92851.50;;;4.38;85.94
6198;BME280;3132;42.622;23.328;2023-04-08T03:17:19;92880.47;;;4.57;86.02
6198;BME280;3132;42.622;23.328;2023-04-08T03:19:44;92861.34;;;4.41;86.29
6198;BME280;3132;42.622;23.328;2023-04-08T03:22:12;92861.03;;;4.38;86.67
6198;BME280;3132;42.622;23.328;2023-04-08T03:24:37;92861.50;;;4.35;87.48
6198;BME280;3132;42.622;23.328;2023-04-08T03:27:03;92866.06;;;4.28;87.38
6198;BME280;3132;42.622;23.328;2023-04-08T03:29:28;92882.81;;;4.42;87.01
6198;BME280;3132;42.622;23.328;2023-04-08T03:31:54;92874.13;;;4.48;86.39
6198;BME280;3132;42.622;23.328;2023-04-08T03:34:19;92861.22;;;4.48;86.33
6198;BME280;3132;42.622;23.328;2023-04-08T03:36:44;92879.22;;;4.43;87.42
6198;BME280;3132;42.622;23.328;2023-04-08T03:39:10;92809.50;;;3.98;87.71
6198;BME280;3132;42.622;23.328;2023-04-08T03:41:35;92879.53;;;4.46;87.38
6198;BME280;3132;42.622;23.328;2023-04-08T03:44:01;92854.56;;;4.35;87.35
6198;BME280;3132;42.622;23.328;2023-04-08T03:46:26;92883.75;;;4.52;87.37
6198;BME280;3132;42.622;23.328;2023-04-08T03:48:52;92873.25;;;4.42;87.52
6198;BME280;3132;42.622;23.328;2023-04-08T03:51:17;92879.91;;;4.38;87.80
6198;BME280;3132;42.622;23.328;2023-04-08T03:53:43;92842.63;;;4.18;87.75
6198;BME280;3132;42.622;23.328;2023-04-08T03:56:08;92826.34;;;4.17;87.63
6198;BME280;3132;42.622;23.328;2023-04-08T03:58:33;92862.44;;;4.45;86.47
6198;BME280;3132;42.622;23.328;2023-04-08T04:00:59;92858.16;;;4.51;86.40
6198;BME280;3132;42.622;23.328;2023-04-08T04:03:24;92871.41;;;4.54;86.69
6198;BME280;3132;42.622;23.328;2023-04-08T04:05:50;92859.63;;;4.30;86.72
6198;BME280;3132;42.622;23.328;2023-04-08T04:08:15;92859.47;;;4.37;87.10
6198;BME280;3132;42.622;23.328;2023-04-08T04:10:41;92867.09;;;4.43;86.98
6198;BME280;3132;42.622;23.328;2023-04-08T04:13:06;92880.00;;;4.43;86.85
6198;BME280;3132;42.622;23.328;2023-04-08T04:15:32;92861.19;;;4.31;86.65
6198;BME280;3132;42.622;23.328;2023-04-08T04:17:57;92878.41;;;4.42;86.96
6198;BME280;3132;42.622;23.328;2023-04-08T04:20:22;92874.66;;;4.33;87.54
6198;BME280;3132;42.622;23.328;2023-04-08T04:22:50;92864.78;;;4.30;87.41
6198;BME280;3132;42.622;23.328;2023-04-08T04:25:15;92884.38;;;4.26;88.66
6198;BME280;3132;42.622;23.328;2023-04-08T04:27:41;92867.47;;;4.35;87.93
6198;BME280;3132;42.622;23.328;2023-04-08T04:30:06;92878.75;;;4.29;89.01
6198;BME280;3132;42.622;23.328;2023-04-08T04:32:33;92885.66;;;4.40;88.52
6198;BME280;3132;42.622;23.328;2023-04-08T04:34:59;92866.06;;;4.28;88.55
6198;BME280;3132;42.622;23.328;2023-04-08T04:37:24;92872.97;;;4.39;87.67
6198;BME280;3132;42.622;23.328;2023-04-08T04:39:50;92853.44;;;4.31;87.73
6198;BME280;3132;42.622;23.328;2023-04-08T04:42:15;92837.75;;;4.05;88.12
6198;BME280;3132;42.622;23.328;2023-04-08T04:44:41;92867.31;;;4.42;87.90
6198;BME280;3132;42.622;23.328;2023-04-08T04:47:06;92876.56;;;4.54;86.93
6198;BME280;3132;42.622;23.328;2023-04-08T04:49:32;92874.84;;;4.43;86.28
6198;BME280;3132;42.622;23.328;2023-04-08T04:51:57;92892.22;;;4.64;86.64
6198;BME280;3132;42.622;23.328;2023-04-08T04:54:22;92877.91;;;4.40;85.96
6198;BME280;3132;42.622;23.328;2023-04-08T04:56:48;92896.44;;;4.37;85.58
6198;BME280;3132;42.622;23.328;2023-04-08T04:59:13;92875.78;;;4.54;83.80
6198;BME280;3132;42.622;23.328;2023-04-08T05:01:39;92905.09;;;4.76;84.08
6198;BME280;3132;42.622;23.328;2023-04-08T05:04:05;92907.03;;;4.85;82.85
6198;BME280;3132;42.622;23.328;2023-04-08T05:06:31;92865.41;;;4.70;83.27
6198;BME280;3132;42.622;23.328;2023-04-08T05:08:56;92904.59;;;4.95;84.02
6198;BME280;3132;42.622;23.328;2023-04-08T05:11:22;92888.28;;;4.78;85.36
6198;BME280;3132;42.622;23.328;2023-04-08T05:13:47;92892.75;;;5.00;85.04
6198;BME280;3132;42.622;23.328;2023-04-08T05:16:12;92896.03;;;5.12;85.21
6198;BME280;3132;42.622;23.328;2023-04-08T05:18:38;92894.66;;;5.26;82.72
6198;BME280;3132;42.622;23.328;2023-04-08T05:21:03;92899.63;;;5.11;81.63
6198;BME280;3132;42.622;23.328;2023-04-08T05:23:29;92895.19;;;5.28;82.02
6198;BME280;3132;42.622;23.328;2023-04-08T05:25:54;92905.75;;;5.43;81.59
6198;BME280;3132;42.622;23.328;2023-04-08T05:28:20;92908.03;;;5.61;81.78
6198;BME280;3132;42.622;23.328;2023-04-08T05:30:49;92893.16;;;5.30;83.86
6198;BME280;3132;42.622;23.328;2023-04-08T05:33:15;92891.34;;;5.30;79.73
6198;BME280;3132;42.622;23.328;2023-04-08T05:35:41;92878.00;;;5.38;77.90
6198;BME280;3132;42.622;23.328;2023-04-08T05:38:06;92906.16;;;5.94;77.20
6198;BME280;3132;42.622;23.328;2023-04-08T05:40:32;92879.09;;;6.12;76.02
6198;BME280;3132;42.622;23.328;2023-04-08T05:42:57;92857.03;;;6.36;82.09
6198;BME280;3132;42.622;23.328;2023-04-08T05:45:22;92915.22;;;6.45;75.68
6198;BME280;3132;42.622;23.328;2023-04-08T05:47:48;92876.19;;;6.30;75.49
6198;BME280;3132;42.622;23.328;2023-04-08T05:50:13;92909.44;;;6.38;76.33
6198;BME280;3132;42.622;23.328;2023-04-08T05:52:42;92845.97;;;6.14;76.38
6198;BME280;3132;42.622;23.328;2023-04-08T05:55:12;92870.88;;;6.46;75.13
6198;BME280;3132;42.622;23.328;2023-04-08T05:57:38;92897.56;;;6.74;73.96
6198;BME280;3132;42.622;23.328;2023-04-08T06:00:05;92915.53;;;6.85;74.29
6198;BME280;3132;42.622;23.328;2023-04-08T06:02:30;92895.78;;;6.79;74.18
6198;BME280;3132;42.622;23.328;2023-04-08T06:04:56;92865.00;;;6.56;74.22
6198;BME280;3132;42.622;23.328;2023-04-08T06:07:21;92906.91;;;6.75;75.32
6198;BME280;3132;42.622;23.328;2023-04-08T06:09:46;92891.91;;;6.50;75.12
6198;BME280;3132;42.622;23.328;2023-04-08T06:12:12;92838.22;;;6.19;75.94
6198;BME280;3132;42.622;23.328;2023-04-08T06:14:37;92893.47;;;6.51;75.67
6198;BME280;3132;42.622;23.328;2023-04-08T06:17:03;92881.06;;;5.57;78.60
6198;BME280;3132;42.622;23.328;2023-04-08T06:19:28;92854.84;;;5.75;77.76
6198;BME280;3132;42.622;23.328;2023-04-08T06:21:54;92845.59;;;5.36;78.48
6198;BME280;3132;42.622;23.328;2023-04-08T06:24:24;92880.31;;;6.04;77.70
6198;BME280;3132;42.622;23.328;2023-04-08T06:26:50;92894.25;;;6.51;77.09
6198;BME280;3132;42.622;23.328;2023-04-08T06:29:16;92869.06;;;7.20;72.69
6198;BME280;3132;42.622;23.328;2023-04-08T06:31:42;92881.94;;;8.13;71.22
6198;BME280;3132;42.622;23.328;2023-04-08T06:34:07;92882.00;;;8.39;68.63
6198;BME280;3132;42.622;23.328;2023-04-08T06:36:32;92891.66;;;8.48;68.11
6198;BME280;3132;42.622;23.328;2023-04-08T06:38:58;92903.09;;;7.70;69.57
6198;BME280;3132;42.622;23.328;2023-04-08T06:41:23;92852.13;;;6.66;72.35
6198;BME280;3132;42.622;23.328;2023-04-08T06:43:48;92899.78;;;7.33;71.11
6198;BME280;3132;42.622;23.328;2023-04-08T06:46:14;92910.47;;;7.98;70.32
6198;BME280;3132;42.622;23.328;2023-04-08T06:48:39;92916.00;;;8.22;68.38
6198;BME280;3132;42.622;23.328;2023-04-08T06:51:05;92892.50;;;7.97;68.83
6198;BME280;3132;42.622;23.328;2023-04-08T06:53:31;92808.19;;;7.53;68.49
6198;BME280;3132;42.622;23.328;2023-04-08T06:55:58;92861.53;;;7.80;69.67
6198;BME280;3132;42.622;23.328;2023-04-08T06:58:23;92895.94;;;8.12;68.90
6198;BME280;3132;42.622;23.328;2023-04-08T07:00:48;92859.75;;;7.91;68.75
6198;BME280;3132;42.622;23.328;2023-04-08T07:03:14;92895.41;;;8.00;68.68
6198;BME280;3132;42.622;23.328;2023-04-08T07:05:39;92905.03;;;8.05;69.08
6198;BME280;3132;42.622;23.328;2023-04-08T07:08:06;92924.56;;;8.17;68.56
6198;BME280;3132;42.622;23.328;2023-04-08T07:10:34;92921.53;;;8.36;69.03
6198;BME280;3132;42.622;23.328;2023-04-08T07:12:59;92921.34;;;8.62;67.87
6198;BME280;3132;42.622;23.328;2023-04-08T07:15:25;92927.03;;;8.49;67.71
6198;BME280;3132;42.622;23.328;2023-04-08T07:17:50;92926.78;;;8.66;66.95
6198;BME280;3132;42.622;23.328;2023-04-08T07:20:16;92911.97;;;8.76;66.60
6198;BME280;3132;42.622;23.328;2023-04-08T07:22:42;92930.44;;;8.75;66.08
6198;BME280;3132;42.622;23.328;2023-04-08T07:25:08;92901.81;;;8.50;67.31
6198;BME280;3132;42.622;23.328;2023-04-08T07:27:33;92801.09;;;8.25;67.06
6198;BME280;3132;42.622;23.328;2023-04-08T07:29:59;92895.56;;;8.96;66.84
6198;BME280;3132;42.622;23.328;2023-04-08T07:32:25;92922.00;;;9.83;64.23
6198;BME280;3132;42.622;23.328;2023-04-08T07:34:51;92941.19;;;10.22;62.80
6198;BME280;3132;42.622;23.328;2023-04-08T07:37:17;92941.19;;;10.17;61.00
6198;BME280;3132;42.622;23.328;2023-04-08T07:39:42;92929.00;;;9.93;61.88
6198;BME280;3132;42.622;23.328;2023-04-08T07:42:08;92939.91;;;10.05;61.88
6198;BME280;3132;42.622;23.328;2023-04-08T07:44:33;92924.38;;;9.64;62.21
6198;BME280;3132;42.622;23.328;2023-04-08T07:46:58;92940.81;;;9.60;63.37
6198;BME280;3132;42.622;23.328;2023-04-08T07:49:24;92941.84;;;9.69;63.40
6198;BME280;3132;42.622;23.328;2023-04-08T07:51:49;92930.63;;;9.78;61.79
6198;BME280;3132;42.622;23.328;2023-04-08T07:54:15;92952.03;;;9.50;62.59
6198;BME280;3132;42.622;23.328;2023-04-08T07:56:42;92908.03;;;9.14;62.55
6198;BME280;3132;42.622;23.328;2023-04-08T07:59:09;92929.16;;;9.17;62.29
6198;BME280;3132;42.622;23.328;2023-04-08T08:01:34;92963.72;;;9.73;62.14
6198;BME280;3132;42.622;23.328;2023-04-08T08:04:00;92968.38;;;9.86;61.87
6198;BME280;3132;42.622;23.328;2023-04-08T08:06:26;92973.03;;;10.19;59.88
6198;BME280;3132;42.622;23.328;2023-04-08T08:08:56;92970.78;;;10.51;58.59
6198;BME280;3132;42.622;23.328;2023-04-08T08:11:22;92917.22;;;10.59;57.49
6198;BME280;3132;42.622;23.328;2023-04-08T08:13:47;92971.94;;;11.17;55.95
6198;BME280;3132;42.622;23.328;2023-04-08T08:16:12;92914.41;;;10.89;56.04
6198;BME280;3132;42.622;23.328;2023-04-08T08:18:39;92973.09;;;10.58;56.53
6198;BME280;3132;42.622;23.328;2023-04-08T08:21:04;92980.25;;;10.37;57.25
6198;BME280;3132;42.622;23.328;2023-04-08T08:23:30;92964.16;;;10.10;58.56
6198;BME280;3132;42.622;23.328;2023-04-08T08:26:04;92960.63;;;10.45;57.61
6198;BME280;3132;42.622;23.328;2023-04-08T08:28:39;92979.81;;;10.74;57.52
6198;BME280;3132;42.622;23.328;2023-04-08T08:31:05;92959.50;;;10.61;56.25
6198;BME280;3132;42.622;23.328;2023-04-08T08:33:31;92940.06;;;9.44;58.40
6198;BME280;3132;42.622;23.328;2023-04-08T08:35:57;92987.13;;;10.72;57.06
6198;BME280;3132;42.622;23.328;2023-04-08T08:38:23;92962.00;;;10.81;57.32
6198;BME280;3132;42.622;23.328;2023-04-08T08:40:58;92993.97;;;11.40;56.03
6198;BME280;3132;42.622;23.328;2023-04-08T08:43:25;92985.34;;;10.62;58.11
6198;BME280;3132;42.622;23.328;2023-04-08T08:45:52;92971.09;;;10.88;57.20
6198;BME280;3132;42.622;23.328;2023-04-08T08:48:17;92960.22;;;10.71;57.01
6198;BME280;3132;42.622;23.328;2023-04-08T08:50:43;92989.03;;;9.67;60.98
6198;BME280;3132;42.622;23.328;2023-04-08T08:53:08;92994.47;;;9.86;61.66
6198;BME280;3132;42.622;23.328;2023-04-08T08:55:34;92983.84;;;10.46;58.41
6198;BME280;3132;42.622;23.328;2023-04-08T08:58:00;92991.81;;;10.06;59.15
6198;BME280;3132;42.622;23.328;2023-04-08T09:00:41;92994.94;;;10.77;58.55
6198;BME280;3132;42.622;23.328;2023-04-08T09:05:47;92999.38;;;11.20;56.79
6198;BME280;3132;42.622;23.328;2023-04-08T09:10:48;92995.09;;;11.34;57.34
6198;BME280;3132;42.622;23.328;2023-04-08T09:13:13;92959.66;;;11.52;57.99
6198;BME280;3132;42.622;23.328;2023-04-08T09:16:05;92981.13;;;12.06;56.32
6198;BME280;3132;42.622;23.328;2023-04-08T09:18:32;92992.31;;;12.35;57.31
6198;BME280;3132;42.622;23.328;2023-04-08T09:21:04;92997.59;;;12.30;55.82
6198;BME280;3132;42.622;23.328;2023-04-08T09:23:37;92985.25;;;11.83;58.24
6198;BME280;3132;42.622;23.328;2023-04-08T09:26:15;92972.84;;;11.70;57.87
6198;BME280;3132;42.622;23.328;2023-04-08T09:28:42;92983.66;;;12.34;54.82
6198;BME280;3132;42.622;23.328;2023-04-08T09:31:20;92978.91;;;12.60;55.52
6198;BME280;3132;42.622;23.328;2023-04-08T09:33:47;92975.34;;;12.93;53.48
6198;BME280;3132;42.622;23.328;2023-04-08T09:36:14;92979.13;;;12.45;53.08
6198;BME280;3132;42.622;23.328;2023-04-08T09:38:40;92980.97;;;13.05;53.27
6198;BME280;3132;42.622;23.328;2023-04-08T09:41:06;92953.31;;;12.10;54.92
6198;BME280;3132;42.622;23.328;2023-04-08T09:43:35;92972.50;;;11.77;56.64
6198;BME280;3132;42.622;23.328;2023-04-08T09:46:07;92977.09;;;11.27;57.49
6198;BME280;3132;42.622;23.328;2023-04-08T09:48:41;92974.41;;;10.99;59.24
6198;BME280;3132;42.622;23.328;2023-04-08T09:51:13;92952.91;;;10.73;60.42
6198;BME280;3132;42.622;23.328;2023-04-08T09:53:46;92948.78;;;10.62;60.81
6198;BME280;3132;42.622;23.328;2023-04-08T09:56:13;92966.97;;;10.77;61.23
6198;BME280;3132;42.622;23.328;2023-04-08T09:59:08;92963.94;;;10.60;60.29
6198;BME280;3132;42.622;23.328;2023-04-08T10:01:40;92964.47;;;10.57;61.25
6198;BME280;3132;42.622;23.328;2023-04-08T10:04:11;92968.78;;;10.33;60.82
6198;BME280;3132;42.622;23.328;2023-04-08T10:06:40;92969.16;;;10.60;60.66
6198;BME280;3132;42.622;23.328;2023-04-08T10:09:05;92954.19;;;10.76;60.31
6198;BME280;3132;42.622;23.328;2023-04-08T10:11:32;92967.13;;;10.96;59.32
6198;BME280;3132;42.622;23.328;2023-04-08T10:13:58;92944.56;;;10.71;58.82
6198;BME280;3132;42.622;23.328;2023-04-08T10:16:25;92926.69;;;10.50;61.62
6198;BME280;3132;42.622;23.328;2023-04-08T10:18:52;92958.00;;;10.93;60.60
6198;BME280;3132;42.622;23.328;2023-04-08T10:21:40;92942.78;;;11.00;59.71
6198;BME280;3132;42.622;23.328;2023-04-08T10:24:12;92954.34;;;11.28;59.92
6198;BME280;3132;42.622;23.328;2023-04-08T10:26:42;92957.41;;;11.06;60.72
6198;BME280;3132;42.622;23.328;2023-04-08T10:31:49;92956.22;;;10.89;61.64
6198;BME280;3132;42.622;23.328;2023-04-08T10:34:18;92957.63;;;10.71;62.91
6198;BME280;3132;42.622;23.328;2023-04-08T10:36:44;92952.38;;;11.10;61.60
6198;BME280;3132;42.622;23.328;2023-04-08T10:39:11;92939.97;;;11.25;60.47
6198;BME280;3132;42.622;23.328;2023-04-08T10:41:48;92924.31;;;11.25;62.28
6198;BME280;3132;42.622;23.328;2023-04-08T10:44:18;92934.16;;;11.91;61.03
6198;BME280;3132;42.622;23.328;2023-04-08T10:46:47;92942.38;;;12.68;60.73
6198;BME280;3132;42.622;23.328;2023-04-08T10:49:14;92931.66;;;12.70;57.30
6198;BME280;3132;42.622;23.328;2023-04-08T10:51:40;92913.88;;;13.04;55.38
6198;BME280;3132;42.622;23.328;2023-04-08T10:54:14;92942.94;;;13.40;53.84
6198;BME280;3132;42.622;23.328;2023-04-08T10:56:51;92930.78;;;13.44;53.81
6198;BME280;3132;42.622;23.328;2023-04-08T10:59:28;92934.72;;;13.46;53.16
6198;BME280;3132;42.622;23.328;2023-04-08T11:01:54;92925.84;;;13.10;54.81
6198;BME280;3132;42.622;23.328;2023-04-08T11:04:20;92933.81;;;12.63;56.08
6198;BME280;3132;42.622;23.328;2023-04-08T11:06:48;92938.59;;;12.37;55.93
6198;BME280;3132;42.622;23.328;2023-04-08T11:09:14;92934.81;;;12.67;55.83
6198;BME280;3132;42.622;23.328;2023-04-08T11:11:45;92928.94;;;12.75;55.32
6198;BME280;3132;42.622;23.328;2023-04-08T11:14:11;92914.22;;;12.79;54.92
6198;BME280;3132;42.622;23.328;2023-04-08T11:16:38;92932.41;;;12.89;54.47
6198;BME280;3132;42.622;23.328;2023-04-08T11:19:04;92922.69;;;12.34;56.04
6198;BME280;3132;42.622;23.328;2023-04-08T11:21:31;92922.09;;;12.79;54.76
6198;BME280;3132;42.622;23.328;2023-04-08T11:23:59;92921.91;;;12.89;55.29
6198;BME280;3132;42.622;23.328;2023-04-08T11:26:24;92918.91;;;13.01;53.86
6198;BME280;3132;42.622;23.328;2023-04-08T11:28:51;92891.19;;;13.13;52.72
6198;BME280;3132;42.622;23.328;2023-04-08T11:31:18;92924.69;;;13.16;52.15
6198;BME280;3132;42.622;23.328;2023-04-08T11:33:46;92914.13;;;13.21;52.19
6198;BME280;3132;42.622;23.328;2023-04-08T11:36:12;92904.78;;;13.15;52.12
6198;BME280;3132;42.622;23.328;2023-04-08T11:38:39;92904.50;;;12.61;52.06
6198;BME280;3132;42.622;23.328;2023-04-08T11:41:07;92893.75;;;12.44;52.72
6198;BME280;3132;42.622;23.328;2023-04-08T11:43:33;92884.47;;;12.51;52.89
6198;BME280;3132;42.622;23.328;2023-04-08T11:46:07;92912.06;;;12.62;52.57
6198;BME280;3132;42.622;23.328;2023-04-08T11:48:33;92883.69;;;12.14;53.94
6198;BME280;3132;42.622;23.328;2023-04-08T11:51:03;92861.38;;;11.98;53.44
6198;BME280;3132;42.622;23.328;2023-04-08T11:53:29;92902.09;;;12.04;54.83
6198;BME280;3132;42.622;23.328;2023-04-08T11:55:54;92899.66;;;11.89;58.64
6198;BME280;3132;42.622;23.328;2023-04-08T11:58:20;92894.59;;;11.97;59.42
6198;BME280;3132;42.622;23.328;2023-04-08T12:00:45;92885.06;;;13.04;57.70
6198;BME280;3132;42.622;23.328;2023-04-08T12:03:11;92888.03;;;13.43;52.27
6198;BME280;3132;42.622;23.328;2023-04-08T12:05:37;92885.84;;;13.64;53.20
6198;BME280;3132;42.622;23.328;2023-04-08T12:08:03;92885.06;;;13.50;51.52
6198;BME280;3132;42.622;23.328;2023-04-08T12:10:28;92878.19;;;13.22;53.84
6198;BME280;3132;42.622;23.328;2023-04-08T12:12:54;92869.84;;;13.20;53.23
6198;BME280;3132;42.622;23.328;2023-04-08T12:15:20;92878.66;;;13.10;52.35
6198;BME280;3132;42.622;23.328;2023-04-08T12:17:45;92868.31;;;12.81;54.45
6198;BME280;3132;42.622;23.328;2023-04-08T12:20:11;92844.94;;;13.04;52.31
6198;BME280;3132;42.622;23.328;2023-04-08T12:22:37;92869.22;;;13.09;50.16
6198;BME280;3132;42.622;23.328;2023-04-08T12:25:03;92862.78;;;12.83;51.61
6198;BME280;3132;42.622;23.328;2023-04-08T12:27:29;92857.34;;;12.24;55.88
6198;BME280;3132;42.622;23.328;2023-04-08T12:29:57;92851.63;;;12.22;54.45
6198;BME280;3132;42.622;23.328;2023-04-08T12:32:23;92836.50;;;11.77;54.13
6198;BME280;3132;42.622;23.328;2023-04-08T12:34:50;92844.53;;;11.57;58.11
6198;BME280;3132;42.622;23.328;2023-04-08T12:37:15;92831.81;;;11.74;55.81
6198;BME280;3132;42.622;23.328;2023-04-08T12:39:41;92843.63;;;11.43;57.56
6198;BME280;3132;42.622;23.328;2023-04-08T12:42:06;92831.41;;;11.62;57.29
6198;BME280;3132;42.622;23.328;2023-04-08T12:44:31;92838.81;;;11.78;56.18
6198;BME280;3132;42.622;23.328;2023-04-08T12:46:57;92837.59;;;11.71;56.57
6198;BME280;3132;42.622;23.328;2023-04-08T12:49:23;92840.41;;;11.51;55.54
6198;BME280;3132;42.622;23.328;2023-04-08T12:51:49;92842.59;;;11.44;56.56
6198;BME280;3132;42.622;23.328;2023-04-08T12:54:14;92832.16;;;11.44;58.56
6198;BME280;3132;42.622;23.328;2023-04-08T12:56:39;92824.91;;;11.59;56.81
6198;BME280;3132;42.622;23.328;2023-04-08T12:59:07;92832.66;;;11.69;57.67
6198;BME280;3132;42.622;23.328;2023-04-08T13:01:33;92793.81;;;11.58;56.88
6198;BME280;3132;42.622;23.328;2023-04-08T13:03:58;92845.53;;;11.66;58.78
6198;BME280;3132;42.622;23.328;2023-04-08T13:06:24;92842.28;;;11.74;59.52
6198;BME280;3132;42.622;23.328;2023-04-08T13:08:50;92842.06;;;11.70;60.25
6198;BME280;3132;42.622;23.328;2023-04-08T13:11:15;92835.31;;;10.83;59.12
6198;BME280;3132;42.622;23.328;2023-04-08T13:13:40;92781.84;;;10.47;61.46
6198;BME280;3132;42.622;23.328;2023-04-08T13:16:06;92805.38;;;11.28;60.84
6198;BME280;3132;42.622;23.328;2023-04-08T13:18:31;92821.00;;;11.57;63.20
6198;BME280;3132;42.622;23.328;2023-04-08T13:20:57;92841.91;;;11.57;66.32
6198;BME280;3132;42.622;23.328;2023-04-08T13:23:22;92844.19;;;11.68;64.66
6198;BME280;3132;42.622;23.328;2023-04-08T13:25:48;92832.31;;;11.76;63.44